Time;durP1;ratioP1;P1;durP2;ratioP2;P2;SDS_P1;SDS_P2;PMS_P1;PMS_P2;Temp;Humidity;BMP_temperature;BMP_pressure;BME280_temperature;BME280_humidity;BME280_pressure;Samples;Min_cycle;Max_cycle;Signal;HPM_P1;HPM_P2
2020/12/13 00:03:04;;;;;;;927.27;827.83;;;5.90;99.90;;;;;;10508668;27;86791;-71
2020/12/13 00:08:06;;;;;;;941.70;830.60;;;6.00;99.90;;;;;;10507691;27;85845;-71
2020/12/13 00:13:11;;;;;;;935.90;827.87;;;6.10;99.90;;;;;;10492041;27;85488;-71
2020/12/13 00:18:13;;;;;;;913.10;816.53;;;6.00;99.90;;;;;;10510812;27;85730;-71
2020/12/13 00:23:15;;;;;;;887.33;797.10;;;6.00;99.90;;;;;;10492639;27;85315;-70
2020/12/13 00:28:17;;;;;;;922.40;819.50;;;6.10;99.90;;;;;;10511204;27;85524;-71
2020/12/13 00:33:21;;;;;;;922.77;821.30;;;6.10;99.90;;;;;;10509775;27;86266;-71
2020/12/13 00:38:24;;;;;;;899.53;801.70;;;6.20;99.90;;;;;;10510012;27;85010;-71
2020/12/13 00:43:26;;;;;;;406.60;324.60;;;6.20;99.90;;;;;;10510128;27;86541;-69
2020/12/13 00:48:27;;;;;;;837.30;749.27;;;6.30;99.90;;;;;;10507777;27;85212;-70
2020/12/13 00:53:30;;;;;;;804.13;720.17;;;6.30;99.90;;;;;;10490781;27;85729;-70
2020/12/13 00:58:32;;;;;;;630.03;559.10;;;6.40;99.90;;;;;;10490794;27;85157;-71
2020/12/13 01:03:34;;;;;;;416.93;306.43;;;6.40;99.90;;;;;;10509047;27;85299;-70
2020/12/13 01:08:36;;;;;;;386.70;305.57;;;6.40;99.90;;;;;;10510869;27;85643;-70
2020/12/13 01:13:38;;;;;;;292.80;201.57;;;6.30;99.90;;;;;;10511239;27;85533;-70
2020/12/13 01:18:40;;;;;;;234.83;156.97;;;6.30;99.90;;;;;;10502436;27;85111;-70
2020/12/13 01:23:42;;;;;;;167.27;105.83;;;6.30;99.90;;;;;;10508544;27;85099;-70
2020/12/13 01:28:45;;;;;;;225.23;146.73;;;6.30;99.90;;;;;;10503732;27;84965;-70
2020/12/13 01:33:48;;;;;;;137.50;85.90;;;6.30;99.90;;;;;;10506937;27;85423;-70
2020/12/13 01:38:50;;;;;;;70.67;46.80;;;6.20;99.90;;;;;;10519149;27;82678;-70
2020/12/13 01:43:57;;;;;;;240.57;160.33;;;6.20;99.90;;;;;;10517086;27;84314;-70
2020/12/13 01:49:03;;;;;;;125.70;78.13;;;6.10;99.90;;;;;;10511769;27;85521;-71
2020/12/13 01:54:08;;;;;;;187.30;121.93;;;6.10;99.90;;;;;;10520885;27;83888;-70
2020/12/13 01:59:16;;;;;;;220.10;171.63;;;6.10;99.90;;;;;;10518166;27;85434;-71
2020/12/13 02:04:21;;;;;;;144.23;96.17;;;6.00;99.90;;;;;;10515633;27;85384;-71
2020/12/13 02:09:24;;;;;;;73.03;48.33;;;6.00;99.90;;;;;;10517218;27;82854;-71
2020/12/13 02:14:26;;;;;;;234.20;159.00;;;6.00;99.90;;;;;;10514815;27;84474;-71
2020/12/13 02:19:28;;;;;;;273.30;180.57;;;6.00;99.90;;;;;;10513536;27;85308;-71
2020/12/13 02:24:31;;;;;;;431.37;348.03;;;6.00;99.90;;;;;;10516555;27;85403;-71
2020/12/13 02:29:32;;;;;;;255.50;178.83;;;6.00;99.90;;;;;;10514742;27;85061;-71
2020/12/13 02:34:34;;;;;;;309.63;210.23;;;6.00;99.90;;;;;;10518522;27;85364;-71
2020/12/13 02:39:37;;;;;;;420.30;311.33;;;6.00;99.90;;;;;;10513989;27;85804;-71
2020/12/13 02:44:41;;;;;;;396.33;291.13;;;6.00;99.90;;;;;;10512905;27;86037;-71
2020/12/13 02:49:45;;;;;;;588.77;522.50;;;5.90;99.90;;;;;;10512457;27;85169;-70
2020/12/13 02:54:47;;;;;;;805.73;723.77;;;5.90;99.90;;;;;;10508035;27;85168;-71
2020/12/13 02:59:49;;;;;;;642.80;577.00;;;5.90;99.90;;;;;;10508402;27;85670;-71
2020/12/13 03:04:51;;;;;;;307.27;260.47;;;5.90;99.90;;;;;;10450099;27;87071;-70
2020/12/13 03:09:55;;;;;;;162.60;105.47;;;5.80;99.90;;;;;;10440024;27;86983;-70
2020/12/13 03:14:57;;;;;;;586.27;518.53;;;5.80;99.90;;;;;;10442077;27;87267;-70
2020/12/13 03:19:59;;;;;;;269.10;177.53;;;5.80;99.90;;;;;;10443229;27;87109;-70
2020/12/13 03:25:02;;;;;;;491.57;402.63;;;5.80;99.90;;;;;;10424630;27;86650;-70
2020/12/13 03:30:03;;;;;;;445.20;376.03;;;5.80;99.90;;;;;;10441318;27;87193;-69
2020/12/13 03:35:05;;;;;;;552.47;468.90;;;5.70;99.90;;;;;;10443258;27;86549;-70
2020/12/13 03:40:11;;;;;;;783.03;700.53;;;5.70;99.90;;;;;;10438958;27;87687;-70
2020/12/13 03:45:15;;;;;;;924.73;825.83;;;5.70;99.90;;;;;;10441570;27;86448;-70
2020/12/13 03:50:17;;;;;;;924.03;825.30;;;5.70;99.90;;;;;;10440028;27;88157;-70
2020/12/13 03:55:19;;;;;;;922.53;824.00;;;5.70;99.90;;;;;;10465189;27;86274;-70
2020/12/13 04:00:21;;;;;;;901.30;806.87;;;5.70;99.90;;;;;;10437931;27;87124;-69
2020/12/13 04:05:24;;;;;;;928.20;829.83;;;5.70;99.90;;;;;;10438413;27;87129;-70
2020/12/13 04:10:27;;;;;;;924.30;826.90;;;5.70;99.90;;;;;;10442364;27;86099;-71
2020/12/13 04:15:29;;;;;;;714.73;637.23;;;5.70;99.90;;;;;;10441334;27;87197;-70
2020/12/13 04:20:30;;;;;;;532.70;440.63;;;5.70;99.90;;;;;;10440638;27;85985;-70
2020/12/13 04:25:33;;;;;;;615.00;547.67;;;5.60;99.90;;;;;;10440801;27;87466;-70
2020/12/13 04:30:34;;;;;;;749.53;672.00;;;5.70;99.90;;;;;;10440893;27;87186;-70
2020/12/13 04:35:36;;;;;;;872.90;785.27;;;5.70;99.90;;;;;;10437963;27;87357;-70
2020/12/13 04:40:39;;;;;;;743.90;665.87;;;5.80;99.90;;;;;;10441102;27;86823;-70
2020/12/13 04:45:40;;;;;;;655.67;586.27;;;5.80;99.90;;;;;;10440629;27;87470;-70
2020/12/13 04:50:42;;;;;;;493.83;401.17;;;5.80;99.90;;;;;;10434382;27;88259;-70
2020/12/13 04:55:53;;;;;;;517.03;433.33;;;6.00;99.90;;;;;;10437321;27;87077;-70
2020/12/13 05:00:56;;;;;;;761.83;683.67;;;6.00;99.90;;;;;;10441773;27;87056;-70
2020/12/13 05:06:00;;;;;;;631.83;562.13;;;6.00;99.90;;;;;;10423674;27;87254;-70
2020/12/13 05:11:03;;;;;;;757.57;677.53;;;6.10;99.90;;;;;;10441577;27;85351;-70
2020/12/13 05:16:07;;;;;;;716.80;641.40;;;6.10;99.90;;;;;;10444093;27;87053;-70
2020/12/13 05:21:08;;;;;;;572.30;491.17;;;6.00;99.90;;;;;;10447244;27;85704;-70
2020/12/13 05:26:11;;;;;;;840.53;755.73;;;6.00;99.90;;;;;;10446022;27;87021;-70
2020/12/13 05:31:14;;;;;;;911.03;817.83;;;6.00;99.90;;;;;;10445503;27;87085;-70
2020/12/13 05:36:18;;;;;;;926.40;825.57;;;6.00;99.90;;;;;;10470113;27;87008;-70
2020/12/13 05:41:20;;;;;;;925.50;825.27;;;5.90;99.90;;;;;;10442980;27;87293;-69
2020/12/13 05:46:47;;;;;;;918.37;818.53;;;5.80;99.90;;;;;;10426978;27;87038;-70
2020/12/13 05:51:50;;;;;;;897.97;807.07;;;5.80;99.90;;;;;;10443796;27;86944;-70
2020/12/13 05:56:57;;;;;;;918.53;818.97;;;5.80;99.90;;;;;;10448552;27;87118;-70
2020/12/13 06:02:00;;;;;;;896.67;803.27;;;5.80;99.90;;;;;;10426586;27;87298;-70
2020/12/13 06:07:03;;;;;;;390.77;330.37;;;5.70;99.90;;;;;;10445394;27;87149;-70
2020/12/13 06:12:07;;;;;;;863.77;775.80;;;5.70;99.90;;;;;;10441727;27;87130;-70
2020/12/13 06:17:10;;;;;;;787.77;702.90;;;5.70;99.90;;;;;;10442329;27;87056;-70
2020/12/13 06:22:14;;;;;;;919.13;821.17;;;5.70;99.90;;;;;;10437487;27;87171;-71
2020/12/13 06:27:21;;;;;;;916.97;819.70;;;5.70;99.90;;;;;;10462251;27;87364;-70
2020/12/13 06:32:23;;;;;;;876.17;784.53;;;5.70;99.90;;;;;;10515433;27;85712;-69
2020/12/13 06:37:25;;;;;;;460.60;387.23;;;5.70;99.90;;;;;;10514737;27;86179;-70
2020/12/13 06:42:27;;;;;;;656.60;585.70;;;5.70;99.90;;;;;;10512030;27;86424;-70
2020/12/13 06:47:31;;;;;;;870.33;779.63;;;5.70;99.90;;;;;;10512059;27;85173;-70
2020/12/13 06:52:34;;;;;;;902.70;810.47;;;5.80;99.90;;;;;;10513390;27;86160;-70
2020/12/13 06:57:37;;;;;;;924.20;821.73;;;5.80;99.90;;;;;;10512184;27;85057;-70
2020/12/13 07:02:46;;;;;;;982.00;832.40;;;5.80;99.90;;;;;;10508195;27;85111;-71
2020/12/13 07:07:53;;;;;;;919.77;820.53;;;5.80;99.90;;;;;;10507973;27;85403;-70
2020/12/13 07:13:00;;;;;;;940.20;829.40;;;5.90;99.90;;;;;;10511543;27;85446;-71
2020/12/13 07:18:04;;;;;;;752.87;650.87;;;5.90;99.90;;;;;;10512123;27;88681;-71
2020/12/13 07:23:07;;;;;;;799.67;717.93;;;5.80;99.90;;;;;;10513791;27;87064;-71
2020/12/13 07:28:09;;;;;;;854.10;767.37;;;5.90;99.90;;;;;;10510309;27;85647;-71
2020/12/13 07:33:11;;;;;;;919.37;820.63;;;5.90;99.90;;;;;;10511394;27;85015;-71
2020/12/13 07:38:13;;;;;;;763.70;685.77;;;5.90;99.90;;;;;;10513495;27;85059;-71
2020/12/13 07:43:16;;;;;;;910.63;815.77;;;6.00;99.90;;;;;;10512883;27;85060;-71
2020/12/13 07:48:17;;;;;;;938.07;826.30;;;6.00;99.90;;;;;;10515330;27;86117;-72
2020/12/13 07:53:26;;;;;;;786.13;705.43;;;6.00;99.90;;;;;;10511837;27;85652;-71
2020/12/13 07:58:30;;;;;;;890.00;797.90;;;6.00;99.90;;;;;;10513279;27;85116;-72
2020/12/13 08:03:42;;;;;;;738.47;661.33;;;6.10;99.90;;;;;;10511101;27;86735;-71
2020/12/13 08:08:45;;;;;;;276.80;201.73;;;6.10;99.90;;;;;;10510543;27;86171;-71
2020/12/13 08:13:52;;;;;;;156.50;99.33;;;6.20;99.90;;;;;;10510383;27;85594;-71
2020/12/13 08:18:59;;;;;;;139.30;87.20;;;6.20;99.90;;;;;;10512105;27;82684;-72
2020/12/13 08:24:03;;;;;;;591.43;521.20;;;6.20;99.90;;;;;;10510801;27;83374;-72
2020/12/13 08:29:09;;;;;;;539.43;459.73;;;6.30;99.90;;;;;;10506067;27;87458;-72
2020/12/13 08:34:11;;;;;;;126.77;85.57;;;6.40;99.90;;;;;;10486260;27;86455;-72
2020/12/13 08:39:13;;;;;;;249.77;165.13;;;6.40;99.90;;;;;;10511397;27;83434;-74
2020/12/13 08:44:30;;;;;;;90.17;59.50;;;6.40;99.90;;;;;;10509824;27;87213;-72
2020/12/13 08:49:33;;;;;;;369.60;279.90;;;6.40;99.90;;;;;;10514128;27;83374;-73
2020/12/13 08:54:44;;;;;;;43.30;31.07;;;6.40;99.90;;;;;;10508644;27;85832;-72
2020/12/13 08:59:58;;;;;;;78.40;50.13;;;6.50;99.90;;;;;;10514970;27;83543;-73
2020/12/13 09:05:01;;;;;;;346.53;255.33;;;6.50;99.90;;;;;;10515453;27;83064;-72
2020/12/13 09:10:14;;;;;;;307.63;221.13;;;6.50;99.90;;;;;;10510486;27;86080;-73
2020/12/13 09:15:20;;;;;;;462.17;383.10;;;6.50;99.90;;;;;;10511620;27;85536;-72
2020/12/13 09:20:25;;;;;;;592.93;528.03;;;6.50;99.90;;;;;;10510919;27;86599;-71
2020/12/13 09:25:27;;;;;;;693.97;618.10;;;6.50;99.90;;;;;;10509914;27;85053;-72
2020/12/13 09:30:30;;;;;;;45.50;30.10;;;6.60;99.90;;;;;;10509979;27;85495;-72
2020/12/13 09:35:32;;;;;;;28.23;16.30;;;6.60;99.90;;;;;;10512329;27;82635;-72
2020/12/13 09:40:34;;;;;;;224.50;175.50;;;6.70;99.90;;;;;;10493144;27;84325;-72
2020/12/13 09:45:36;;;;;;;827.30;736.90;;;6.80;99.90;;;;;;10506865;27;85601;-72
2020/12/13 09:50:38;;;;;;;440.10;351.17;;;7.00;99.90;;;;;;10506456;27;86207;-73
2020/12/13 09:55:40;;;;;;;461.53;364.37;;;7.10;99.90;;;;;;10513057;27;87368;-72
2020/12/13 10:00:43;;;;;;;34.50;24.77;;;7.10;99.90;;;;;;10515009;27;86313;-73
2020/12/13 10:06:00;;;;;;;176.30;115.57;;;7.30;99.90;;;;;;10518748;27;82781;-74
2020/12/13 10:11:02;;;;;;;117.03;72.70;;;7.70;99.90;;;;;;10514171;27;85068;-72
2020/12/13 10:16:10;;;;;;;5.73;4.87;;;8.20;99.90;;;;;;10517808;27;83591;-72
2020/12/13 10:21:12;;;;;;;77.90;52.13;;;8.50;99.90;;;;;;10519322;27;82757;-73
2020/12/13 10:26:13;;;;;;;405.20;310.93;;;9.20;99.90;;;;;;10517188;27;82838;-72
2020/12/13 10:31:16;;;;;;;413.40;327.80;;;9.60;99.90;;;;;;10515000;27;85648;-72
2020/12/13 10:36:17;;;;;;;443.50;349.07;;;9.70;99.90;;;;;;10511104;27;85106;-73
2020/12/13 10:41:20;;;;;;;146.60;92.20;;;9.70;99.90;;;;;;10507637;27;85172;-72
2020/12/13 10:46:23;;;;;;;96.40;62.60;;;9.40;99.90;;;;;;10514629;27;83121;-73
2020/12/13 10:51:24;;;;;;;18.73;12.90;;;9.10;99.90;;;;;;10516393;27;83700;-72
2020/12/13 10:56:26;;;;;;;3.83;3.33;;;8.90;99.90;;;;;;10510833;27;82689;-72
2020/12/13 11:01:29;;;;;;;7.70;4.53;;;8.70;99.90;;;;;;10515287;27;82639;-72
2020/12/13 11:06:31;;;;;;;10.17;7.90;;;8.60;99.90;;;;;;10498429;27;81779;-71
2020/12/13 11:11:32;;;;;;;70.93;50.80;;;8.60;99.90;;;;;;10519343;27;82699;-71
2020/12/13 11:16:35;;;;;;;89.43;55.23;;;8.60;99.90;;;;;;10512804;27;82966;-72
2020/12/13 11:21:36;;;;;;;14.03;7.37;;;8.50;99.90;;;;;;10514685;27;83941;-73
2020/12/13 11:26:38;;;;;;;3.70;1.87;;;8.40;99.90;;;;;;10518235;27;82654;-70
2020/12/13 11:31:41;;;;;;;214.40;147.53;;;8.40;99.90;;;;;;10515748;27;83914;-72
2020/12/13 11:36:45;;;;;;;204.83;137.03;;;8.50;99.90;;;;;;10509252;27;86163;-72
2020/12/13 11:41:47;;;;;;;140.77;87.10;;;8.60;99.90;;;;;;10510311;27;85642;-72
2020/12/13 11:46:49;;;;;;;4.07;1.70;;;8.60;99.90;;;;;;10509469;27;82872;-72
2020/12/13 11:51:51;;;;;;;3.93;1.47;;;8.70;99.90;;;;;;10515093;27;82754;-71
2020/12/13 11:56:54;;;;;;;8.53;2.70;;;8.60;99.90;;;;;;10517132;27;81763;-73
2020/12/13 12:01:57;;;;;;;4.07;1.43;;;8.60;99.90;;;;;;10511988;27;81954;-72
2020/12/13 12:07:00;;;;;;;63.43;41.13;;;8.70;99.90;;;;;;10513741;27;82131;-71
2020/12/13 12:12:02;;;;;;;36.20;22.07;;;8.60;99.90;;;;;;10492601;27;83462;-73
2020/12/13 12:17:04;;;;;;;15.87;9.00;;;8.50;99.90;;;;;;10514766;27;83612;-72
2020/12/13 12:22:06;;;;;;;2.87;1.03;;;8.40;99.90;;;;;;10509170;27;84533;-73
2020/12/13 12:27:08;;;;;;;23.40;14.17;;;8.30;99.90;;;;;;10513996;27;82605;-73
2020/12/13 12:32:11;;;;;;;28.20;20.47;;;8.20;99.90;;;;;;10511280;27;83066;-74
2020/12/13 12:37:12;;;;;;;4.43;2.53;;;8.00;99.90;;;;;;10511760;27;85840;-72
2020/12/13 12:42:14;;;;;;;461.53;384.73;;;8.00;99.90;;;;;;10512780;27;82858;-72
2020/12/13 12:47:19;;;;;;;332.23;278.80;;;7.90;99.90;;;;;;10509844;27;85080;-72
2020/12/13 12:52:21;;;;;;;136.43;83.53;;;7.80;99.90;;;;;;10509528;27;85065;-71
2020/12/13 12:57:23;;;;;;;426.47;339.83;;;7.80;99.90;;;;;;10513226;27;82667;-72
2020/12/13 13:02:28;;;;;;;93.13;58.10;;;7.70;99.90;;;;;;10505377;27;85183;-72
2020/12/13 13:07:32;;;;;;;25.37;17.40;;;7.70;99.90;;;;;;10506916;27;84330;-73
2020/12/13 13:12:34;;;;;;;10.73;7.90;;;7.60;99.90;;;;;;10508160;27;83486;-72
2020/12/13 13:17:42;;;;;;;6.40;1.73;;;7.60;99.90;;;;;;10512386;27;82569;-73
2020/12/13 13:22:44;;;;;;;5.20;1.70;;;7.60;99.90;;;;;;10515814;27;82603;-73
2020/12/13 13:27:46;;;;;;;4.10;1.50;;;7.60;99.90;;;;;;10510755;27;82985;-73
2020/12/13 13:32:48;;;;;;;3.87;1.50;;;7.60;99.90;;;;;;10514346;27;82879;-73
2020/12/13 13:37:50;;;;;;;3.40;1.40;;;7.60;99.90;;;;;;10520666;27;83530;-72
2020/12/13 13:42:55;;;;;;;3.33;1.40;;;7.60;99.90;;;;;;10518434;27;82590;-73
2020/12/13 13:48:12;;;;;;;113.00;71.90;;;7.50;99.90;;;;;;10498194;27;82902;-73
2020/12/13 13:53:13;;;;;;;77.30;46.97;;;7.50;99.90;;;;;;10509994;27;84124;-72
2020/12/13 13:58:16;;;;;;;15.43;9.80;;;7.50;99.90;;;;;;10520062;27;83598;-74
2020/12/13 14:03:18;;;;;;;24.93;15.30;;;7.40;99.90;;;;;;10513023;27;82827;-74
2020/12/13 14:08:41;;;;;;;50.80;31.23;;;7.30;99.90;;;;;;10508585;27;83159;-73
2020/12/13 14:13:42;;;;;;;12.33;3.07;;;7.30;99.90;;;;;;10508242;27;84352;-73
2020/12/13 14:18:45;;;;;;;12.57;4.30;;;7.20;99.90;;;;;;10498556;27;84308;-72
2020/12/13 14:23:47;;;;;;;21.10;8.27;;;7.20;99.90;;;;;;10512567;27;82769;-75
2020/12/13 14:28:49;;;;;;;230.33;141.50;;;7.20;99.90;;;;;;10513975;27;82756;-71
2020/12/13 14:33:51;;;;;;;28.17;16.60;;;7.20;99.90;;;;;;10502392;27;86094;-74
2020/12/13 14:38:54;;;;;;;25.43;15.27;;;7.30;99.90;;;;;;10511959;27;83037;-73
2020/12/13 14:43:56;;;;;;;23.33;10.67;;;7.30;99.90;;;;;;10498307;27;82793;-74
2020/12/13 14:48:58;;;;;;;18.60;10.67;;;7.30;99.90;;;;;;10506158;27;83655;-74
2020/12/13 14:54:00;;;;;;;11.07;4.80;;;7.30;99.90;;;;;;10498282;27;83477;-73
2020/12/13 14:59:02;;;;;;;6.63;2.97;;;7.30;99.90;;;;;;10489217;27;83032;-74
2020/12/13 15:04:04;;;;;;;4.13;2.10;;;7.40;99.90;;;;;;10509815;27;82046;-74
2020/12/13 15:09:08;;;;;;;9.87;1.93;;;7.20;99.90;;;;;;10493128;27;82913;-74
2020/12/13 15:14:13;;;;;;;7.43;2.13;;;7.10;99.90;;;;;;10498478;27;83300;-76
2020/12/13 15:19:16;;;;;;;4.03;2.27;;;7.00;99.90;;;;;;10485120;27;83397;-72
2020/12/13 15:24:17;;;;;;;8.53;2.97;;;6.90;99.90;;;;;;10509098;27;83764;-72
2020/12/13 15:29:19;;;;;;;6.60;2.43;;;6.90;99.90;;;;;;10502119;27;82472;-71
2020/12/13 15:34:21;;;;;;;14.03;2.80;;;6.80;99.90;;;;;;10480222;27;82612;-71
2020/12/13 15:39:23;;;;;;;5.43;2.60;;;6.70;99.90;;;;;;10456440;27;83688;-71
2020/12/13 15:44:25;;;;;;;7.33;3.17;;;6.60;99.90;;;;;;10498935;27;83968;-73
2020/12/13 15:49:28;;;;;;;5.90;3.03;;;6.60;99.90;;;;;;10470543;27;85256;-72
2020/12/13 15:54:30;;;;;;;6.67;3.50;;;6.50;99.90;;;;;;10501442;27;84108;-73
2020/12/13 15:59:31;;;;;;;7.73;3.40;;;6.50;99.90;;;;;;10492226;27;82479;-73
2020/12/13 16:04:34;;;;;;;8.90;3.80;;;6.40;99.90;;;;;;10493780;27;82539;-71
2020/12/13 16:09:35;;;;;;;11.37;5.23;;;6.30;99.90;;;;;;10498099;27;85047;-72
2020/12/13 16:14:37;;;;;;;22.67;7.80;;;6.20;99.90;;;;;;10489454;27;82775;-71
2020/12/13 16:19:42;;;;;;;23.80;7.70;;;6.20;99.90;;;;;;10479120;27;82661;-71
2020/12/13 16:24:44;;;;;;;8.87;3.30;;;6.20;99.90;;;;;;10479079;27;83514;-71
2020/12/13 16:29:46;;;;;;;110.97;69.90;;;6.20;99.90;;;;;;10513104;27;83436;-70
2020/12/13 16:34:48;;;;;;;123.07;83.27;;;6.20;99.90;;;;;;10504186;27;83377;-69
2020/12/13 16:39:51;;;;;;;14.43;5.33;;;6.20;99.90;;;;;;10485713;27;83827;-70
2020/12/13 16:44:53;;;;;;;20.27;4.97;;;6.10;99.90;;;;;;10508797;27;85341;-70
2020/12/13 16:50:21;;;;;;;6.60;3.47;;;6.10;99.90;;;;;;10506592;27;83007;-70
2020/12/13 16:55:22;;;;;;;20.27;8.77;;;6.10;99.90;;;;;;10495510;27;84713;-70
2020/12/13 17:00:26;;;;;;;17.97;5.60;;;6.10;99.90;;;;;;10514772;27;81845;-71
2020/12/13 17:05:30;;;;;;;13.47;8.17;;;6.00;99.90;;;;;;10518215;27;83016;-71
2020/12/13 17:10:32;;;;;;;33.07;19.10;;;5.90;99.90;;;;;;10525101;27;81885;-69
2020/12/13 17:15:34;;;;;;;9.93;4.83;;;5.90;99.90;;;;;;10518355;27;87191;-69
2020/12/13 17:20:37;;;;;;;13.40;5.07;;;5.90;99.90;;;;;;10521172;27;83214;-71
2020/12/13 17:25:43;;;;;;;9.47;5.00;;;5.80;99.90;;;;;;10518826;27;83851;-71
2020/12/13 17:30:47;;;;;;;9.30;3.87;;;5.70;99.90;;;;;;10522638;27;83828;-71
2020/12/13 17:35:51;;;;;;;8.93;4.47;;;5.80;99.90;;;;;;10520637;27;82174;-71
2020/12/13 17:40:53;;;;;;;22.27;5.90;;;5.80;99.90;;;;;;10519736;27;82899;-72
2020/12/13 17:45:54;;;;;;;12.33;5.10;;;5.60;99.90;;;;;;10519782;27;83116;-72
2020/12/13 17:51:03;;;;;;;10.87;5.27;;;5.40;99.90;;;;;;10517297;27;82727;-70
2020/12/13 17:56:12;;;;;;;79.47;45.83;;;5.40;99.90;;;;;;10521349;27;82639;-70
2020/12/13 18:01:14;;;;;;;24.03;13.67;;;5.40;99.90;;;;;;10501398;27;83779;-72
2020/12/13 18:06:19;;;;;;;18.80;9.30;;;5.30;99.90;;;;;;10519674;27;83497;-71
2020/12/13 18:11:20;;;;;;;9.90;4.50;;;5.20;99.90;;;;;;10518671;27;82555;-71
2020/12/13 18:16:22;;;;;;;8.90;4.53;;;5.10;99.90;;;;;;10519088;27;83692;-72
2020/12/13 18:21:25;;;;;;;10.13;5.63;;;5.10;99.90;;;;;;10520599;27;84452;-72
2020/12/13 18:26:27;;;;;;;30.07;14.90;;;5.10;99.90;;;;;;10520066;27;83093;-71
2020/12/13 18:31:29;;;;;;;18.23;6.40;;;5.10;99.90;;;;;;10512007;27;83558;-70
2020/12/13 18:36:31;;;;;;;15.50;7.67;;;5.10;99.90;;;;;;10489046;27;82731;-70
2020/12/13 18:41:36;;;;;;;41.63;23.57;;;5.00;99.90;;;;;;10510767;27;84033;-71
2020/12/13 18:46:37;;;;;;;22.53;11.97;;;5.00;99.90;;;;;;10511389;27;82663;-71
2020/12/13 18:51:40;;;;;;;13.77;5.33;;;5.00;99.90;;;;;;10514350;27;84302;-70
2020/12/13 18:56:42;;;;;;;39.23;23.13;;;5.00;99.90;;;;;;10517128;27;82610;-70
2020/12/13 19:01:50;;;;;;;31.13;19.77;;;5.10;99.90;;;;;;10512846;27;83022;-72
2020/12/13 19:06:55;;;;;;;16.43;8.37;;;5.10;99.90;;;;;;10516828;27;83115;-71
2020/12/13 19:11:59;;;;;;;13.77;5.23;;;5.10;99.90;;;;;;10515704;27;82434;-70
2020/12/13 19:17:01;;;;;;;16.83;9.00;;;5.10;99.90;;;;;;10515484;27;82678;-71
2020/12/13 19:22:05;;;;;;;10.83;5.40;;;5.10;99.90;;;;;;10515456;27;83133;-70
2020/12/13 19:27:07;;;;;;;21.13;12.93;;;5.10;99.90;;;;;;10512771;27;82365;-70
2020/12/13 19:32:09;;;;;;;21.07;7.90;;;5.10;99.90;;;;;;10513494;27;83029;-71
2020/12/13 19:37:11;;;;;;;13.27;5.27;;;5.10;99.90;;;;;;10517783;27;82528;-71
2020/12/13 19:42:13;;;;;;;20.13;12.77;;;5.10;99.90;;;;;;10515608;27;82728;-71
2020/12/13 19:47:15;;;;;;;16.83;8.93;;;5.10;99.90;;;;;;10492791;27;85197;-71
2020/12/13 19:52:18;;;;;;;16.77;7.07;;;5.00;99.90;;;;;;10514664;27;82575;-70
2020/12/13 19:57:19;;;;;;;15.03;6.60;;;4.90;99.90;;;;;;10515036;27;83485;-70
2020/12/13 20:02:24;;;;;;;14.47;5.67;;;4.90;99.90;;;;;;10514865;27;84427;-71
2020/12/13 20:07:29;;;;;;;9.77;5.00;;;4.90;99.90;;;;;;10493554;27;84226;-71
2020/12/13 20:12:36;;;;;;;10.83;5.00;;;4.90;99.90;;;;;;10513227;27;83859;-70
2020/12/13 20:17:51;;;;;;;16.67;7.97;;;4.90;99.90;;;;;;10512768;27;82656;-71
2020/12/13 20:23:47;;;;;;;14.17;6.23;;;4.90;99.90;;;;;;10505900;27;82219;-70
2020/12/13 21:17:44;;;;;;;14.23;5.57;;;4.80;99.90;;;;;;10523207;22;84079;-73
2020/12/13 21:22:48;;;;;;;14.83;6.17;;;4.90;99.90;;;;;;10496795;27;82595;-71
2020/12/13 21:28:29;;;;;;;13.07;5.50;;;4.90;99.90;;;;;;10498757;27;82171;-71
2020/12/13 21:38:56;;;;;;;20.20;7.13;;;4.90;99.90;;;;;;10496365;27;83890;-72
2020/12/13 21:54:52;;;;;;;11.73;5.20;;;4.70;99.90;;;;;;10505771;27;82731;-71
2020/12/13 22:00:02;;;;;;;17.83;6.07;;;4.70;99.90;;;;;;10505130;27;82525;-73
2020/12/13 22:05:43;;;;;;;10.03;4.97;;;4.60;99.90;;;;;;10503144;27;83127;-72
2020/12/13 22:27:04;;;;;;;14.03;5.77;;;4.60;99.90;;;;;;10449472;27;82829;-71
2020/12/13 22:32:07;;;;;;;15.97;6.90;;;4.60;99.90;;;;;;10450761;27;84260;-71
2020/12/13 22:37:11;;;;;;;14.27;6.20;;;4.70;99.90;;;;;;10447543;27;83918;-72
2020/12/13 22:42:13;;;;;;;19.37;6.70;;;4.70;99.90;;;;;;10450765;27;82592;-71
2020/12/13 22:47:16;;;;;;;16.30;6.37;;;4.80;99.90;;;;;;10455776;27;83273;-70
2020/12/13 22:52:17;;;;;;;14.27;6.27;;;4.80;99.90;;;;;;10448607;27;82763;-71
2020/12/13 22:57:20;;;;;;;13.97;6.27;;;4.80;99.90;;;;;;10451516;27;83502;-71
2020/12/13 23:02:23;;;;;;;11.83;5.30;;;4.80;99.90;;;;;;10447403;27;82412;-71
2020/12/13 23:07:24;;;;;;;13.00;5.70;;;4.80;99.90;;;;;;10451695;27;83205;-71
2020/12/13 23:12:26;;;;;;;15.33;6.10;;;4.80;99.90;;;;;;10449540;27;83034;-71
2020/12/13 23:17:29;;;;;;;18.87;6.23;;;4.80;99.90;;;;;;10447732;27;83030;-70
2020/12/13 23:22:30;;;;;;;17.13;7.07;;;4.70;99.90;;;;;;10451372;27;82669;-72
2020/12/13 23:27:38;;;;;;;13.83;6.23;;;4.70;99.90;;;;;;10445428;27;84626;-72
2020/12/13 23:32:41;;;;;;;15.20;7.67;;;4.60;99.90;;;;;;10446047;27;83868;-71
2020/12/13 23:37:43;;;;;;;17.43;8.73;;;4.60;99.90;;;;;;10447039;27;82904;-71
2020/12/13 23:42:45;;;;;;;19.93;6.47;;;4.60;99.90;;;;;;10443137;27;83461;-72
2020/12/13 23:47:49;;;;;;;12.97;8.50;;;4.60;99.90;;;;;;10442330;27;83547;-72
2020/12/13 23:52:51;;;;;;;24.63;7.17;;;4.60;99.90;;;;;;10428280;27;83188;-72
2020/12/13 23:57:52;;;;;;;12.40;8.00;;;4.60;99.90;;;;;;10427028;27;85365;-71
